Ro Fjord — LFEI — position and weather

sailwx.info

Track history (hours):
 
Tides and Currents Weather Stations Pressure Air Temp Water Temp Dewpoint Dewpoint Depression Visibility Wind Speed Wind Dir Waves Ship Positions

Ro Fjord

Last reported at 2017-Mar-23 13:33 UTC. Time now 2017-Mar-23 14:09 UTC.
Position N 62°21' E 005°45'.

Length 72 m; draft 6.4 m.

Type: Ship. MMSI: 257430000.

Date/timePositionNaut miles runAvg speedWind from/ knotsBaromVisibWave heightAir tempDewpointWater temp
2017-Mar-23 13:33N 62°21' E 005°45'9 9.5
2017-Mar-23 12:33N 62°14' E 005°31'2 2.3
2017-Mar-23 11:33N 62°12' E 005°34'0 0.0
2017-Mar-23 10:33N 62°12' E 005°34'0 0.0
2017-Mar-23 09:33N 62°12' E 005°34'0 0.0
2017-Mar-23 08:33N 62°12' E 005°34'0 0.0
2017-Mar-23 07:33N 62°12' E 005°34'0 0.0
2017-Mar-23 06:33N 62°12' E 005°34'0 0.0
2017-Mar-23 05:33N 62°12' E 005°34'0 0.0
2017-Mar-23 04:33N 62°12' E 005°34'0 0.0
2017-Mar-23 03:32N 62°12' E 005°34'0 0.0
2017-Mar-23 02:33N 62°12' E 005°34'0 0.0
2017-Mar-23 01:33N 62°12' E 005°34'0 0.0
2017-Mar-23 00:32N 62°12' E 005°34'0 0.0
2017-Mar-22 23:33N 62°12' E 005°34'1 1.3
2017-Mar-22 22:32N 62°13' E 005°32'7 7.3
2017-Mar-22 21:33N 62°19' E 005°39'3 2.7
2017-Mar-22 20:33N 62°18' E 005°34'9 9.2
2017-Mar-22 19:33N 62°15' E 005°15'8 7.8
2017-Mar-22 18:33N 62°09' E 005°04'9 8.5
2017-Mar-22 17:33N 62°01' E 005°09'9 8.7
2017-Mar-22 16:33N 61°53' E 005°11'6 6.1
2017-Mar-22 15:33N 61°47' E 005°05'8 8.4
2017-Mar-22 14:33N 61°39' E 004°59'5 4.7
2017-Mar-22 13:33N 61°35' E 004°57'8 8.4
2017-Mar-22 12:33N 61°26' E 004°54'8 8.2
2017-Mar-22 11:32N 61°18' E 004°53'9 9.3
2017-Mar-22 10:33N 61°10' E 005°03'10 9.7
2017-Mar-22 09:33N 61°04' E 005°18'2 2.2
2017-Mar-22 08:33N 61°02' E 005°20'1 0.5
2017-Mar-22 07:33N 61°03' E 005°20'5 5.0
2017-Mar-22 06:33N 61°08' E 005°20'0 0.0
2017-Mar-22 05:33N 61°08' E 005°20'2 2.0
2017-Mar-22 04:33N 61°06' E 005°17'9 8.7
2017-Mar-22 03:32N 61°11' E 005°02'7 7.5
2017-Mar-22 02:33N 61°18' E 004°60'8 8.2
2017-Mar-22 01:33N 61°26' E 004°58'9 9.2
2017-Mar-22 00:33N 61°35' E 004°57'2 2.4
2017-Mar-21 23:33N 61°36' E 005°02'0 0.0
2017-Mar-21 22:33N 61°36' E 005°02'0 0.0
2017-Mar-21 21:32N 61°36' E 005°02'0 0.0
2017-Mar-21 20:33N 61°36' E 005°02'0 0.0
2017-Mar-21 19:33N 61°36' E 005°02'8 7.9
2017-Mar-21 18:33N 61°44' E 004°58'1110.7
2017-Mar-21 17:33N 61°51' E 005°16'7 6.3
2017-Mar-21 16:31N 61°56' E 005°08'0 0.0
2017-Mar-21 15:33N 61°56' E 005°08'8 7.8
2017-Mar-21 14:33N 62°04' E 005°08'9 8.6
2017-Mar-21 13:33N 62°12' E 005°03'7 6.6
2017-Mar-21 12:33N 62°12' E 005°18'5 4.9
2017-Mar-21 11:33N 62°12' E 005°28'9 8.8
2017-Mar-21 10:33N 62°19' E 005°40'0 0.3
2017-Mar-21 09:33N 62°19' E 005°39'0 0.0
2017-Mar-21 08:32N 62°19' E 005°39'0 0.0
2017-Mar-21 07:33N 62°19' E 005°39'0 0.0
2017-Mar-21 06:33N 62°19' E 005°39'0 0.0
2017-Mar-21 05:33N 62°19' E 005°39'0 0.0
2017-Mar-21 04:33N 62°19' E 005°39'0 0.0
2017-Mar-21 03:32N 62°19' E 005°39'0 0.0
2017-Mar-21 02:32N 62°19' E 005°39'0 0.0
2017-Mar-21 01:33N 62°19' E 005°39'0 0.0
2017-Mar-21 00:33N 62°19' E 005°39'0 0.0
2017-Mar-20 23:33N 62°19' E 005°39'0 0.4
2017-Mar-20 22:33N 62°19' E 005°39'10 9.9
2017-Mar-20 21:33N 62°16' E 005°19'9 9.3
2017-Mar-20 20:32N 62°10' E 005°04'1010.0
2017-Mar-20 19:33N 61°60' E 005°10'7 6.8
2017-Mar-20 18:33N 61°54' E 005°04'0 0.2
2017-Mar-20 17:32N 61°54' E 005°04'6 5.9
2017-Mar-20 16:33N 61°59' E 005°09'1010.0
2017-Mar-20 15:33N 62°09' E 005°04'7 6.5
2017-Mar-20 14:33N 62°12' E 005°16'7 7.2
2017-Mar-20 13:32N 62°15' E 005°30'6 5.9
2017-Mar-20 12:33N 62°19' E 005°39'0 0.0
2017-Mar-20 11:33N 62°19' E 005°39'0 0.0
2017-Mar-20 10:31N 62°19' E 005°39'0 0.0
2017-Mar-20 09:33N 62°19' E 005°39'0 0.0
2017-Mar-20 08:32N 62°19' E 005°39'0 0.0
2017-Mar-20 07:33N 62°19' E 005°39'0 0.0
2017-Mar-20 06:33N 62°19' E 005°39'0 0.0
2017-Mar-20 05:33N 62°19' E 005°39'0 0.0
2017-Mar-20 04:33N 62°19' E 005°39'0 0.0
2017-Mar-20 03:33N 62°19' E 005°39'0 0.0
2017-Mar-20 02:33N 62°19' E 005°39'8 8.1
2017-Mar-20 01:32N 62°17' E 005°22'1010.0
2017-Mar-20 00:33N 62°11' E 005°05'10 9.8
2017-Mar-19 23:33N 62°02' E 005°09'8 8.5
2017-Mar-19 22:33N 61°54' E 005°04'0 0.4
2017-Mar-19 21:32N 61°54' E 005°04'0 0.0
2017-Mar-19 20:33N 61°54' E 005°04'0 0.2
2017-Mar-19 19:33N 61°54' E 005°04'8 7.6
2017-Mar-19 18:33N 62°01' E 005°09'9 9.2
2017-Mar-19 17:33N 62°10' E 005°04'7 7.1
2017-Mar-19 16:32N 62°11' E 005°19'7 0.2
2017-Mar-17 16:18N 62°12' E 005°34'1 1.4
2017-Mar-17 15:33N 62°12' E 005°32'6 5.9
2017-Mar-17 14:32N 62°18' E 005°34'3 2.6
2017-Mar-17 13:32N 62°19' E 005°39'0 0.0
2017-Mar-17 12:33N 62°19' E 005°39'0 0.0
2017-Mar-17 11:32N 62°19' E 005°39'0 0.0
2017-Mar-17 10:33N 62°19' E 005°39'0 0.0
2017-Mar-17 09:33N 62°19' E 005°39'0 0.0
2017-Mar-17 08:32N 62°19' E 005°39'0 0.0
2017-Mar-17 07:33N 62°19' E 005°39'0 0.0
2017-Mar-17 06:33N 62°19' E 005°39'0 0.0
2017-Mar-17 05:33N 62°19' E 005°39'0 0.0
2017-Mar-17 04:33N 62°19' E 005°39'8 7.6
2017-Mar-17 03:33N 62°17' E 005°23'1010.1
2017-Mar-17 02:33N 62°12' E 005°05'8 7.9
2017-Mar-17 01:33N 62°05' E 005°00'7 6.9
2017-Mar-17 00:33N 61°60' E 005°10'7 6.5
2017-Mar-16 23:33N 61°54' E 005°04'0 0.0
2017-Mar-16 22:33N 61°54' E 005°04'0 0.0
2017-Mar-16 21:33N 61°54' E 005°04'0 0.0
2017-Mar-16 20:33N 61°54' E 005°04'2 2.1
2017-Mar-16 19:33N 61°54' E 005°08'10 9.7
2017-Mar-16 18:33N 62°04' E 005°07'8 7.7
2017-Mar-16 17:33N 62°11' E 005°02'6 5.9
2017-Mar-16 16:33N 62°13' E 005°14'8 7.7
2017-Mar-16 15:33N 62°13' E 005°31'7 3.2
2017-Mar-16 13:15N 62°19' E 005°39'0 0.0
2017-Mar-16 12:33N 62°19' E 005°39'0 0.0
2017-Mar-16 11:33N 62°19' E 005°39'0 0.0
2017-Mar-16 10:33N 62°19' E 005°39'0 0.0
2017-Mar-16 09:33N 62°19' E 005°39'0 0.0
2017-Mar-16 08:33N 62°19' E 005°39'0 0.0
2017-Mar-16 07:33N 62°19' E 005°39'0 0.0
2017-Mar-16 06:33N 62°19' E 005°39'0 0.0
2017-Mar-16 05:33N 62°19' E 005°39'0 0.0
2017-Mar-16 04:32N 62°19' E 005°39'0 0.0
2017-Mar-16 03:29N 62°19' E 005°39'0 0.1
2017-Mar-16 02:33N 62°19' E 005°40'9 8.9
2017-Mar-16 01:33N 62°17' E 005°21'9 9.2
2017-Mar-16 00:33N 62°12' E 005°05'8 8.4
2017-Mar-15 23:33N 62°03' E 005°08'9 9.3
2017-Mar-15 22:33N 61°54' E 005°08'2 1.9
2017-Mar-15 21:32N 61°54' E 005°04'2 1.9
2017-Mar-15 20:33N 61°55' E 005°07'1010.2
2017-Mar-15 19:33N 62°05' E 005°07'8 7.6
2017-Mar-15 18:33N 62°12' E 005°05'6 6.3
2017-Mar-15 17:32N 62°12' E 005°18'7 7.5
2017-Mar-15 16:33N 62°16' E 005°31'5 4.8
2017-Mar-15 15:31N 62°19' E 005°39'0 0.0
2017-Mar-15 14:31N 62°19' E 005°39'0 0.0
2017-Mar-15 13:31N 62°19' E 005°39'0 0.0
2017-Mar-15 12:31N 62°19' E 005°39'0 0.0
2017-Mar-15 11:31N 62°19' E 005°39'3 3.5
2017-Mar-15 10:33N 62°18' E 005°33'9 9.1
2017-Mar-15 09:33N 62°15' E 005°14'9 8.5
2017-Mar-15 08:33N 62°10' E 004°59'6 6.1
2017-Mar-15 07:33N 62°04' E 005°04'7 6.8
2017-Mar-15 06:33N 61°58' E 005°09'2 2.3
2017-Mar-15 05:33N 61°56' E 005°07'0 0.0
2017-Mar-15 04:33N 61°56' E 005°07'0 0.0
2017-Mar-15 03:33N 61°56' E 005°07'0 0.0
2017-Mar-15 02:33N 61°56' E 005°07'0 0.0
2017-Mar-15 01:33N 61°56' E 005°07'0 0.0
2017-Mar-15 00:33N 61°56' E 005°07'1 0.6
2017-Mar-14 23:33N 61°55' E 005°07'2 2.1
2017-Mar-14 22:29N 61°54' E 005°04'0 0.0
2017-Mar-14 21:32N 61°54' E 005°04'4 3.7
2017-Mar-14 20:33N 61°57' E 005°08'8 8.4
2017-Mar-14 19:33N 62°05' E 005°02'6 6.0
2017-Mar-14 18:33N 62°10' E 004°59'3 2.6
2017-Mar-14 17:33N 62°13' E 005°01'3 3.0
2017-Mar-14 16:33N 62°14' E 005°07'4 4.1
2017-Mar-14 15:33N 62°13' E 005°15'9 8.5
2017-Mar-14 14:33N 62°12' E 005°33'1 0.5
2017-Mar-14 13:29N 62°12' E 005°34'0 0.0
2017-Mar-14 12:32N 62°12' E 005°34'0 0.0
2017-Mar-14 11:29N 62°12' E 005°34'0 0.0
2017-Mar-14 10:29N 62°12' E 005°34'0 0.0
2017-Mar-14 09:32N 62°12' E 005°34'0 0.0
2017-Mar-14 08:32N 62°12' E 005°34'0 0.0
2017-Mar-14 07:32N 62°12' E 005°34'0 0.0
2017-Mar-14 06:32N 62°12' E 005°34'0 0.0
2017-Mar-14 05:32N 62°12' E 005°34'0 0.0
2017-Mar-14 04:32N 62°12' E 005°34'0 0.0
2017-Mar-14 03:32N 62°12' E 005°34'0 0.0
2017-Mar-14 02:32N 62°12' E 005°34'0 0.0
2017-Mar-14 01:32N 62°12' E 005°34'0 0.0
2017-Mar-14 00:32N 62°12' E 005°34'0 0.0
2017-Mar-13 23:32N 62°12' E 005°34'0 0.0
2017-Mar-13 22:32N 62°12' E 005°34'0 0.0
2017-Mar-13 21:32N 62°12' E 005°34'0 0.0
2017-Mar-13 20:32N 62°12' E 005°34'0 0.0
2017-Mar-13 19:32N 62°12' E 005°34'0 0.0
2017-Mar-13 18:32N 62°12' E 005°34'0 0.0
2017-Mar-13 17:32N 62°12' E 005°34'0 0.0
2017-Mar-13 16:32N 62°12' E 005°34'0 0.0
2017-Mar-13 15:32N 62°12' E 005°34'0 0.0
2017-Mar-13 14:32N 62°12' E 005°34'  
Track history (hours):
 
Tides and Currents Weather Stations Pressure Air Temp Water Temp Dewpoint Dewpoint Depression Visibility Wind Speed Wind Dir Waves Ship Positions

Ro Fjord

Last reported at 2017-Mar-23 13:33 UTC. Time now 2017-Mar-23 14:09 UTC.
Position N 62°21' E 005°45'.

Length 72 m; draft 6.4 m.

Type: Ship. MMSI: 257430000.

Date/timePositionNaut miles runAvg speedWind from/ knotsBaromVisibWave heightAir tempDewpointWater temp
2017-Mar-23 13:33N 62°21' E 005°45'9 9.5
2017-Mar-23 12:33N 62°14' E 005°31'2 2.3
2017-Mar-23 11:33N 62°12' E 005°34'0 0.0
2017-Mar-23 10:33N 62°12' E 005°34'0 0.0
2017-Mar-23 09:33N 62°12' E 005°34'0 0.0
2017-Mar-23 08:33N 62°12' E 005°34'0 0.0
2017-Mar-23 07:33N 62°12' E 005°34'0 0.0
2017-Mar-23 06:33N 62°12' E 005°34'0 0.0
2017-Mar-23 05:33N 62°12' E 005°34'0 0.0
2017-Mar-23 04:33N 62°12' E 005°34'0 0.0
2017-Mar-23 03:32N 62°12' E 005°34'0 0.0
2017-Mar-23 02:33N 62°12' E 005°34'0 0.0
2017-Mar-23 01:33N 62°12' E 005°34'0 0.0
2017-Mar-23 00:32N 62°12' E 005°34'0 0.0
2017-Mar-22 23:33N 62°12' E 005°34'1 1.3
2017-Mar-22 22:32N 62°13' E 005°32'7 7.3
2017-Mar-22 21:33N 62°19' E 005°39'3 2.7
2017-Mar-22 20:33N 62°18' E 005°34'9 9.2
2017-Mar-22 19:33N 62°15' E 005°15'8 7.8
2017-Mar-22 18:33N 62°09' E 005°04'9 8.5
2017-Mar-22 17:33N 62°01' E 005°09'9 8.7
2017-Mar-22 16:33N 61°53' E 005°11'6 6.1
2017-Mar-22 15:33N 61°47' E 005°05'8 8.4
2017-Mar-22 14:33N 61°39' E 004°59'5 4.7
2017-Mar-22 13:33N 61°35' E 004°57'8 8.4
2017-Mar-22 12:33N 61°26' E 004°54'8 8.2
2017-Mar-22 11:32N 61°18' E 004°53'9 9.3
2017-Mar-22 10:33N 61°10' E 005°03'10 9.7
2017-Mar-22 09:33N 61°04' E 005°18'2 2.2
2017-Mar-22 08:33N 61°02' E 005°20'1 0.5
2017-Mar-22 07:33N 61°03' E 005°20'5 5.0
2017-Mar-22 06:33N 61°08' E 005°20'0 0.0
2017-Mar-22 05:33N 61°08' E 005°20'2 2.0
2017-Mar-22 04:33N 61°06' E 005°17'9 8.7
2017-Mar-22 03:32N 61°11' E 005°02'7 7.5
2017-Mar-22 02:33N 61°18' E 004°60'8 8.2
2017-Mar-22 01:33N 61°26' E 004°58'9 9.2
2017-Mar-22 00:33N 61°35' E 004°57'2 2.4
2017-Mar-21 23:33N 61°36' E 005°02'0 0.0
2017-Mar-21 22:33N 61°36' E 005°02'0 0.0
2017-Mar-21 21:32N 61°36' E 005°02'0 0.0
2017-Mar-21 20:33N 61°36' E 005°02'0 0.0
2017-Mar-21 19:33N 61°36' E 005°02'8 7.9
2017-Mar-21 18:33N 61°44' E 004°58'1110.7
2017-Mar-21 17:33N 61°51' E 005°16'7 6.3
2017-Mar-21 16:31N 61°56' E 005°08'0 0.0
2017-Mar-21 15:33N 61°56' E 005°08'8 7.8
2017-Mar-21 14:33N 62°04' E 005°08'9 8.6
2017-Mar-21 13:33N 62°12' E 005°03'7 6.6
2017-Mar-21 12:33N 62°12' E 005°18'5 4.9
2017-Mar-21 11:33N 62°12' E 005°28'9 8.8
2017-Mar-21 10:33N 62°19' E 005°40'0 0.3
2017-Mar-21 09:33N 62°19' E 005°39'0 0.0
2017-Mar-21 08:32N 62°19' E 005°39'0 0.0
2017-Mar-21 07:33N 62°19' E 005°39'0 0.0
2017-Mar-21 06:33N 62°19' E 005°39'0 0.0
2017-Mar-21 05:33N 62°19' E 005°39'0 0.0
2017-Mar-21 04:33N 62°19' E 005°39'0 0.0
2017-Mar-21 03:32N 62°19' E 005°39'0 0.0
2017-Mar-21 02:32N 62°19' E 005°39'0 0.0
2017-Mar-21 01:33N 62°19' E 005°39'0 0.0
2017-Mar-21 00:33N 62°19' E 005°39'0 0.0
2017-Mar-20 23:33N 62°19' E 005°39'0 0.4
2017-Mar-20 22:33N 62°19' E 005°39'10 9.9
2017-Mar-20 21:33N 62°16' E 005°19'9 9.3
2017-Mar-20 20:32N 62°10' E 005°04'1010.0
2017-Mar-20 19:33N 61°60' E 005°10'7 6.8
2017-Mar-20 18:33N 61°54' E 005°04'0 0.2
2017-Mar-20 17:32N 61°54' E 005°04'6 5.9
2017-Mar-20 16:33N 61°59' E 005°09'1010.0
2017-Mar-20 15:33N 62°09' E 005°04'7 6.5
2017-Mar-20 14:33N 62°12' E 005°16'7 7.2
2017-Mar-20 13:32N 62°15' E 005°30'6 5.9
2017-Mar-20 12:33N 62°19' E 005°39'0 0.0
2017-Mar-20 11:33N 62°19' E 005°39'0 0.0
2017-Mar-20 10:31N 62°19' E 005°39'0 0.0
2017-Mar-20 09:33N 62°19' E 005°39'0 0.0
2017-Mar-20 08:32N 62°19' E 005°39'0 0.0
2017-Mar-20 07:33N 62°19' E 005°39'0 0.0
2017-Mar-20 06:33N 62°19' E 005°39'0 0.0
2017-Mar-20 05:33N 62°19' E 005°39'0 0.0
2017-Mar-20 04:33N 62°19' E 005°39'0 0.0
2017-Mar-20 03:33N 62°19' E 005°39'0 0.0
2017-Mar-20 02:33N 62°19' E 005°39'8 8.1
2017-Mar-20 01:32N 62°17' E 005°22'1010.0
2017-Mar-20 00:33N 62°11' E 005°05'10 9.8
2017-Mar-19 23:33N 62°02' E 005°09'8 8.5
2017-Mar-19 22:33N 61°54' E 005°04'0 0.4
2017-Mar-19 21:32N 61°54' E 005°04'0 0.0
2017-Mar-19 20:33N 61°54' E 005°04'0 0.2
2017-Mar-19 19:33N 61°54' E 005°04'8 7.6
2017-Mar-19 18:33N 62°01' E 005°09'9 9.2
2017-Mar-19 17:33N 62°10' E 005°04'7 7.1
2017-Mar-19 16:32N 62°11' E 005°19'7 0.2
2017-Mar-17 16:18N 62°12' E 005°34'1 1.4
2017-Mar-17 15:33N 62°12' E 005°32'6 5.9
2017-Mar-17 14:32N 62°18' E 005°34'3 2.6
2017-Mar-17 13:32N 62°19' E 005°39'0 0.0
2017-Mar-17 12:33N 62°19' E 005°39'0 0.0
2017-Mar-17 11:32N 62°19' E 005°39'0 0.0
2017-Mar-17 10:33N 62°19' E 005°39'0 0.0
2017-Mar-17 09:33N 62°19' E 005°39'0 0.0
2017-Mar-17 08:32N 62°19' E 005°39'0 0.0
2017-Mar-17 07:33N 62°19' E 005°39'0 0.0
2017-Mar-17 06:33N 62°19' E 005°39'0 0.0
2017-Mar-17 05:33N 62°19' E 005°39'0 0.0
2017-Mar-17 04:33N 62°19' E 005°39'8 7.6
2017-Mar-17 03:33N 62°17' E 005°23'1010.1
2017-Mar-17 02:33N 62°12' E 005°05'8 7.9
2017-Mar-17 01:33N 62°05' E 005°00'7 6.9
2017-Mar-17 00:33N 61°60' E 005°10'7 6.5
2017-Mar-16 23:33N 61°54' E 005°04'0 0.0
2017-Mar-16 22:33N 61°54' E 005°04'0 0.0
2017-Mar-16 21:33N 61°54' E 005°04'0 0.0
2017-Mar-16 20:33N 61°54' E 005°04'2 2.1
2017-Mar-16 19:33N 61°54' E 005°08'10 9.7
2017-Mar-16 18:33N 62°04' E 005°07'8 7.7
2017-Mar-16 17:33N 62°11' E 005°02'6 5.9
2017-Mar-16 16:33N 62°13' E 005°14'8 7.7
2017-Mar-16 15:33N 62°13' E 005°31'7 3.2
2017-Mar-16 13:15N 62°19' E 005°39'0 0.0
2017-Mar-16 12:33N 62°19' E 005°39'0 0.0
2017-Mar-16 11:33N 62°19' E 005°39'0 0.0
2017-Mar-16 10:33N 62°19' E 005°39'0 0.0
2017-Mar-16 09:33N 62°19' E 005°39'0 0.0
2017-Mar-16 08:33N 62°19' E 005°39'0 0.0
2017-Mar-16 07:33N 62°19' E 005°39'0 0.0
2017-Mar-16 06:33N 62°19' E 005°39'0 0.0
2017-Mar-16 05:33N 62°19' E 005°39'0 0.0
2017-Mar-16 04:32N 62°19' E 005°39'0 0.0
2017-Mar-16 03:29N 62°19' E 005°39'0 0.1
2017-Mar-16 02:33N 62°19' E 005°40'9 8.9
2017-Mar-16 01:33N 62°17' E 005°21'9 9.2
2017-Mar-16 00:33N 62°12' E 005°05'8 8.4
2017-Mar-15 23:33N 62°03' E 005°08'9 9.3
2017-Mar-15 22:33N 61°54' E 005°08'2 1.9
2017-Mar-15 21:32N 61°54' E 005°04'2 1.9
2017-Mar-15 20:33N 61°55' E 005°07'1010.2
2017-Mar-15 19:33N 62°05' E 005°07'8 7.6
2017-Mar-15 18:33N 62°12' E 005°05'6 6.3
2017-Mar-15 17:32N 62°12' E 005°18'7 7.5
2017-Mar-15 16:33N 62°16' E 005°31'5 4.8
2017-Mar-15 15:31N 62°19' E 005°39'0 0.0
2017-Mar-15 14:31N 62°19' E 005°39'0 0.0
2017-Mar-15 13:31N 62°19' E 005°39'0 0.0
2017-Mar-15 12:31N 62°19' E 005°39'0 0.0
2017-Mar-15 11:31N 62°19' E 005°39'3 3.5
2017-Mar-15 10:33N 62°18' E 005°33'9 9.1
2017-Mar-15 09:33N 62°15' E 005°14'9 8.5
2017-Mar-15 08:33N 62°10' E 004°59'6 6.1
2017-Mar-15 07:33N 62°04' E 005°04'7 6.8
2017-Mar-15 06:33N 61°58' E 005°09'2 2.3
2017-Mar-15 05:33N 61°56' E 005°07'0 0.0
2017-Mar-15 04:33N 61°56' E 005°07'0 0.0
2017-Mar-15 03:33N 61°56' E 005°07'0 0.0
2017-Mar-15 02:33N 61°56' E 005°07'0 0.0
2017-Mar-15 01:33N 61°56' E 005°07'0 0.0
2017-Mar-15 00:33N 61°56' E 005°07'1 0.6
2017-Mar-14 23:33N 61°55' E 005°07'2 2.1
2017-Mar-14 22:29N 61°54' E 005°04'0 0.0
2017-Mar-14 21:32N 61°54' E 005°04'4 3.7
2017-Mar-14 20:33N 61°57' E 005°08'8 8.4
2017-Mar-14 19:33N 62°05' E 005°02'6 6.0
2017-Mar-14 18:33N 62°10' E 004°59'3 2.6
2017-Mar-14 17:33N 62°13' E 005°01'3 3.0
2017-Mar-14 16:33N 62°14' E 005°07'4 4.1
2017-Mar-14 15:33N 62°13' E 005°15'9 8.5
2017-Mar-14 14:33N 62°12' E 005°33'1 0.5
2017-Mar-14 13:29N 62°12' E 005°34'0 0.0
2017-Mar-14 12:32N 62°12' E 005°34'0 0.0
2017-Mar-14 11:29N 62°12' E 005°34'0 0.0
2017-Mar-14 10:29N 62°12' E 005°34'0 0.0
2017-Mar-14 09:32N 62°12' E 005°34'0 0.0
2017-Mar-14 08:32N 62°12' E 005°34'0 0.0
2017-Mar-14 07:32N 62°12' E 005°34'0 0.0
2017-Mar-14 06:32N 62°12' E 005°34'0 0.0
2017-Mar-14 05:32N 62°12' E 005°34'0 0.0
2017-Mar-14 04:32N 62°12' E 005°34'0 0.0
2017-Mar-14 03:32N 62°12' E 005°34'0 0.0
2017-Mar-14 02:32N 62°12' E 005°34'0 0.0
2017-Mar-14 01:32N 62°12' E 005°34'0 0.0
2017-Mar-14 00:32N 62°12' E 005°34'0 0.0
2017-Mar-13 23:32N 62°12' E 005°34'0 0.0
2017-Mar-13 22:32N 62°12' E 005°34'0 0.0
2017-Mar-13 21:32N 62°12' E 005°34'0 0.0
2017-Mar-13 20:32N 62°12' E 005°34'0 0.0
2017-Mar-13 19:32N 62°12' E 005°34'0 0.0
2017-Mar-13 18:32N 62°12' E 005°34'0 0.0
2017-Mar-13 17:32N 62°12' E 005°34'0 0.0
2017-Mar-13 16:32N 62°12' E 005°34'0 0.0
2017-Mar-13 15:32N 62°12' E 005°34'0 0.0
2017-Mar-13 14:32N 62°12' E 005°34'  

Dump ship's entire track history